sensor_id;sensor_type;location;lat;lon;timestamp;pressure;altitude;pressure_sealevel;temperature;humidity
82148;BME280;71718;50.480;12.110;2024-03-06T00:01:39;97712.22;;;4.52;77.55
82148;BME280;71718;50.480;12.110;2024-03-06T00:04:05;97713.47;;;4.56;77.84
82148;BME280;71718;50.480;12.110;2024-03-06T00:06:32;97724.06;;;4.61;78.46
82148;BME280;71718;50.480;12.110;2024-03-06T00:09:00;97719.69;;;4.70;78.28
82148;BME280;71718;50.480;12.110;2024-03-06T00:11:26;97719.66;;;4.78;78.19
82148;BME280;71718;50.480;12.110;2024-03-06T00:13:52;97723.00;;;4.86;77.70
82148;BME280;71718;50.480;12.110;2024-03-06T00:16:19;97725.06;;;4.91;77.28
82148;BME280;71718;50.480;12.110;2024-03-06T00:18:46;97722.00;;;4.95;76.30
82148;BME280;71718;50.480;12.110;2024-03-06T00:21:12;97733.56;;;4.99;76.79
82148;BME280;71718;50.480;12.110;2024-03-06T00:23:39;97729.03;;;5.01;76.49
82148;BME280;71718;50.480;12.110;2024-03-06T00:26:05;97732.22;;;5.12;76.17
82148;BME280;71718;50.480;12.110;2024-03-06T00:28:31;97731.31;;;5.04;75.86
82148;BME280;71718;50.480;12.110;2024-03-06T00:30:58;97732.88;;;5.05;76.19
82148;BME280;71718;50.480;12.110;2024-03-06T00:33:24;97732.44;;;5.02;75.71
82148;BME280;71718;50.480;12.110;2024-03-06T00:35:51;97735.81;;;5.02;76.01
82148;BME280;71718;50.480;12.110;2024-03-06T00:38:17;97736.56;;;5.11;76.53
82148;BME280;71718;50.480;12.110;2024-03-06T00:40:43;97738.28;;;5.19;76.20
82148;BME280;71718;50.480;12.110;2024-03-06T00:43:10;97743.09;;;5.22;75.93
82148;BME280;71718;50.480;12.110;2024-03-06T00:45:36;97748.59;;;5.19;75.99
82148;BME280;71718;50.480;12.110;2024-03-06T00:48:03;97744.25;;;5.19;75.61
82148;BME280;71718;50.480;12.110;2024-03-06T00:50:29;97754.03;;;5.24;75.58
82148;BME280;71718;50.480;12.110;2024-03-06T00:52:55;97757.88;;;5.28;75.21
82148;BME280;71718;50.480;12.110;2024-03-06T00:55:22;97765.59;;;5.28;75.41
82148;BME280;71718;50.480;12.110;2024-03-06T00:57:48;97759.13;;;5.32;75.64
82148;BME280;71718;50.480;12.110;2024-03-06T01:00:15;97759.63;;;5.35;74.82
82148;BME280;71718;50.480;12.110;2024-03-06T01:02:42;97760.59;;;5.34;74.60
82148;BME280;71718;50.480;12.110;2024-03-06T01:05:08;97764.63;;;5.29;74.39
82148;BME280;71718;50.480;12.110;2024-03-06T01:07:37;97758.22;;;5.25;75.04
82148;BME280;71718;50.480;12.110;2024-03-06T01:10:04;97756.78;;;5.22;75.45
82148;BME280;71718;50.480;12.110;2024-03-06T01:12:31;97767.56;;;5.26;75.05
82148;BME280;71718;50.480;12.110;2024-03-06T01:14:57;97765.59;;;5.28;75.06
82148;BME280;71718;50.480;12.110;2024-03-06T01:17:24;97768.81;;;5.30;74.65
82148;BME280;71718;50.480;12.110;2024-03-06T01:19:50;97767.66;;;5.32;74.76
82148;BME280;71718;50.480;12.110;2024-03-06T01:22:17;97777.00;;;5.33;74.84
82148;BME280;71718;50.480;12.110;2024-03-06T01:24:44;97771.59;;;5.20;74.96
82148;BME280;71718;50.480;12.110;2024-03-06T01:27:10;97773.06;;;5.15;75.41
82148;BME280;71718;50.480;12.110;2024-03-06T01:29:37;97775.66;;;5.15;75.57
82148;BME280;71718;50.480;12.110;2024-03-06T01:32:03;97771.63;;;5.12;75.75
82148;BME280;71718;50.480;12.110;2024-03-06T01:34:29;97776.03;;;5.03;76.56
82148;BME280;71718;50.480;12.110;2024-03-06T01:36:56;97779.75;;;4.93;76.64
82148;BME280;71718;50.480;12.110;2024-03-06T01:39:22;97782.50;;;4.91;77.15
82148;BME280;71718;50.480;12.110;2024-03-06T01:41:50;97771.69;;;4.96;76.98
82148;BME280;71718;50.480;12.110;2024-03-06T01:44:18;97786.38;;;4.87;76.75
82148;BME280;71718;50.480;12.110;2024-03-06T01:46:44;97774.00;;;4.83;77.26
82148;BME280;71718;50.480;12.110;2024-03-06T01:49:12;97780.56;;;4.85;77.10
82148;BME280;71718;50.480;12.110;2024-03-06T01:51:45;97783.63;;;4.89;77.17
82148;BME280;71718;50.480;12.110;2024-03-06T01:54:15;97789.25;;;4.92;77.63
82148;BME280;71718;50.480;12.110;2024-03-06T01:56:44;97790.56;;;4.80;77.43
82148;BME280;71718;50.480;12.110;2024-03-06T01:59:12;97794.28;;;4.78;77.24
82148;BME280;71718;50.480;12.110;2024-03-06T02:01:54;97786.56;;;4.70;77.81
82148;BME280;71718;50.480;12.110;2024-03-06T02:04:20;97798.97;;;4.66;78.51
82148;BME280;71718;50.480;12.110;2024-03-06T02:06:48;97792.88;;;4.59;78.14
82148;BME280;71718;50.480;12.110;2024-03-06T02:09:15;97800.13;;;4.47;79.02
82148;BME280;71718;50.480;12.110;2024-03-06T02:11:41;97801.09;;;4.38;78.82
82148;BME280;71718;50.480;12.110;2024-03-06T02:14:07;97804.31;;;4.40;78.36
82148;BME280;71718;50.480;12.110;2024-03-06T02:16:37;97799.81;;;4.42;78.83
82148;BME280;71718;50.480;12.110;2024-03-06T02:19:04;97797.25;;;4.42;78.53
82148;BME280;71718;50.480;12.110;2024-03-06T02:21:30;97799.19;;;4.32;78.70
82148;BME280;71718;50.480;12.110;2024-03-06T02:23:56;97798.72;;;4.20;79.65
82148;BME280;71718;50.480;12.110;2024-03-06T02:26:23;97808.84;;;4.22;79.85
82148;BME280;71718;50.480;12.110;2024-03-06T02:28:50;97803.84;;;4.29;79.68
82148;BME280;71718;50.480;12.110;2024-03-06T02:31:18;97804.81;;;4.36;79.08
82148;BME280;71718;50.480;12.110;2024-03-06T02:33:45;97811.56;;;4.37;79.08
82148;BME280;71718;50.480;12.110;2024-03-06T02:36:11;97809.59;;;4.39;79.07
82148;BME280;71718;50.480;12.110;2024-03-06T02:38:38;97811.06;;;4.41;78.40
82148;BME280;71718;50.480;12.110;2024-03-06T02:41:04;97812.00;;;4.48;78.01
82148;BME280;71718;50.480;12.110;2024-03-06T02:43:30;97822.63;;;4.53;77.90
82148;BME280;71718;50.480;12.110;2024-03-06T02:45:57;97816.50;;;4.54;77.88
82148;BME280;71718;50.480;12.110;2024-03-06T02:48:23;97822.94;;;4.58;78.15
82148;BME280;71718;50.480;12.110;2024-03-06T02:50:50;97817.47;;;4.61;78.30
82148;BME280;71718;50.480;12.110;2024-03-06T02:53:16;97821.81;;;4.61;77.92
82148;BME280;71718;50.480;12.110;2024-03-06T02:55:43;97818.91;;;4.56;77.63
82148;BME280;71718;50.480;12.110;2024-03-06T02:58:09;97815.69;;;4.54;77.77
82148;BME280;71718;50.480;12.110;2024-03-06T03:00:36;97820.06;;;4.53;77.26
82148;BME280;71718;50.480;12.110;2024-03-06T03:03:02;97817.63;;;4.44;77.45
82148;BME280;71718;50.480;12.110;2024-03-06T03:05:29;97813.50;;;4.43;77.61
82148;BME280;71718;50.480;12.110;2024-03-06T03:07:55;97807.53;;;4.42;77.78
82148;BME280;71718;50.480;12.110;2024-03-06T03:10:21;97818.00;;;4.33;77.84
82148;BME280;71718;50.480;12.110;2024-03-06T03:12:48;97817.50;;;4.29;78.00
82148;BME280;71718;50.480;12.110;2024-03-06T03:15:14;97822.47;;;4.14;nan
82148;BME280;71718;50.480;12.110;2024-03-06T03:17:41;97815.41;;;4.08;78.96
82148;BME280;71718;50.480;12.110;2024-03-06T03:20:07;97817.50;;;4.13;79.10
82148;BME280;71718;50.480;12.110;2024-03-06T03:22:34;97828.44;;;4.15;79.02
82148;BME280;71718;50.480;12.110;2024-03-06T03:25:00;97835.50;;;4.21;79.68
82148;BME280;71718;50.480;12.110;2024-03-06T03:27:27;97825.22;;;4.29;79.38
82148;BME280;71718;50.480;12.110;2024-03-06T03:29:53;97830.50;;;4.36;78.79
82148;BME280;71718;50.480;12.110;2024-03-06T03:32:19;97830.50;;;4.44;78.82
82148;BME280;71718;50.480;12.110;2024-03-06T03:34:46;97825.22;;;4.53;78.47
82148;BME280;71718;50.480;12.110;2024-03-06T03:37:13;97833.25;;;4.58;77.45
82148;BME280;71718;50.480;12.110;2024-03-06T03:39:39;97830.00;;;4.64;77.49
82148;BME280;71718;50.480;12.110;2024-03-06T03:42:05;97829.50;;;4.69;77.35
82148;BME280;71718;50.480;12.110;2024-03-06T03:44:32;97837.56;;;4.74;76.67
82148;BME280;71718;50.480;12.110;2024-03-06T03:46:58;97841.56;;;4.77;76.76
82148;BME280;71718;50.480;12.110;2024-03-06T03:49:24;97840.75;;;4.76;76.75
82148;BME280;71718;50.480;12.110;2024-03-06T03:51:51;97841.41;;;4.78;76.42
82148;BME280;71718;50.480;12.110;2024-03-06T03:54:17;97835.75;;;4.83;76.54
82148;BME280;71718;50.480;12.110;2024-03-06T03:56:43;97829.31;;;4.87;76.16
82148;BME280;71718;50.480;12.110;2024-03-06T03:59:10;97831.38;;;4.91;75.94
82148;BME280;71718;50.480;12.110;2024-03-06T04:01:36;97833.97;;;4.91;75.74
82148;BME280;71718;50.480;12.110;2024-03-06T04:04:03;97835.91;;;4.89;75.78
82148;BME280;71718;50.480;12.110;2024-03-06T04:06:29;97832.34;;;4.90;75.98
82148;BME280;71718;50.480;12.110;2024-03-06T04:08:56;97831.06;;;4.94;75.84
82148;BME280;71718;50.480;12.110;2024-03-06T04:11:22;97836.03;;;4.96;75.37
82148;BME280;71718;50.480;12.110;2024-03-06T04:13:48;97842.78;;;4.97;74.86
82148;BME280;71718;50.480;12.110;2024-03-06T04:16:16;97839.75;;;4.93;75.19
82148;BME280;71718;50.480;12.110;2024-03-06T04:18:44;97838.47;;;4.89;75.55
82148;BME280;71718;50.480;12.110;2024-03-06T04:21:10;97840.56;;;4.86;75.67
82148;BME280;71718;50.480;12.110;2024-03-06T04:23:37;97835.25;;;4.87;75.05
82148;BME280;71718;50.480;12.110;2024-03-06T04:26:03;97845.91;;;4.84;74.94
82148;BME280;71718;50.480;12.110;2024-03-06T04:28:29;97847.50;;;4.77;75.14
82148;BME280;71718;50.480;12.110;2024-03-06T04:30:56;97839.66;;;4.62;75.53
82148;BME280;71718;50.480;12.110;2024-03-06T04:33:22;97846.25;;;4.57;76.00
82148;BME280;71718;50.480;12.110;2024-03-06T04:35:48;97860.56;;;4.51;76.54
82148;BME280;71718;50.480;12.110;2024-03-06T04:38:15;97854.94;;;4.56;76.34
82148;BME280;71718;50.480;12.110;2024-03-06T04:40:41;97860.38;;;4.61;76.23
82148;BME280;71718;50.480;12.110;2024-03-06T04:43:08;97862.63;;;4.64;76.55
82148;BME280;71718;50.480;12.110;2024-03-06T04:45:34;97867.63;;;4.66;76.58
82148;BME280;71718;50.480;12.110;2024-03-06T04:48:00;97867.31;;;4.69;76.06
82148;BME280;71718;50.480;12.110;2024-03-06T04:50:27;97869.03;;;4.76;76.34
82148;BME280;71718;50.480;12.110;2024-03-06T04:52:54;97862.59;;;4.80;75.87
82148;BME280;71718;50.480;12.110;2024-03-06T04:55:20;97860.34;;;4.85;75.57
82148;BME280;71718;50.480;12.110;2024-03-06T04:57:46;97870.78;;;4.92;74.97
82148;BME280;71718;50.480;12.110;2024-03-06T05:00:13;97878.00;;;4.96;74.71
82148;BME280;71718;50.480;12.110;2024-03-06T05:02:40;97875.78;;;4.93;74.54
82148;BME280;71718;50.480;12.110;2024-03-06T05:05:24;97870.00;;;4.83;74.99
82148;BME280;71718;50.480;12.110;2024-03-06T05:08:08;97871.63;;;4.76;75.54
82148;BME280;71718;50.480;12.110;2024-03-06T05:10:52;97874.03;;;4.78;75.90
82148;BME280;71718;50.480;12.110;2024-03-06T05:13:36;97883.84;;;4.74;76.04
82148;BME280;71718;50.480;12.110;2024-03-06T05:16:20;97885.78;;;4.64;76.72
82148;BME280;71718;50.480;12.110;2024-03-06T05:19:04;97888.03;;;4.67;76.24
82148;BME280;71718;50.480;12.110;2024-03-06T05:21:47;97891.41;;;4.68;76.89
82148;BME280;71718;50.480;12.110;2024-03-06T05:24:31;97891.72;;;4.64;76.56
82148;BME280;71718;50.480;12.110;2024-03-06T05:27:15;97889.50;;;4.61;76.25
82148;BME280;71718;50.480;12.110;2024-03-06T05:29:59;97901.69;;;4.43;76.31
82148;BME280;71718;50.480;12.110;2024-03-06T05:32:43;97897.84;;;4.31;76.90
82148;BME280;71718;50.480;12.110;2024-03-06T05:35:27;97905.38;;;4.25;76.39
82148;BME280;71718;50.480;12.110;2024-03-06T05:38:11;97903.94;;;4.22;77.30
82148;BME280;71718;50.480;12.110;2024-03-06T05:40:54;97905.72;;;4.22;76.82
82148;BME280;71718;50.480;12.110;2024-03-06T05:43:38;97907.47;;;4.21;76.21
82148;BME280;71718;50.480;12.110;2024-03-06T05:46:22;97909.25;;;4.20;76.49
82148;BME280;71718;50.480;12.110;2024-03-06T05:49:06;97915.81;;;4.23;76.34
82148;BME280;71718;50.480;12.110;2024-03-06T05:51:51;97914.38;;;4.29;75.64
82148;BME280;71718;50.480;12.110;2024-03-06T05:54:34;97923.72;;;4.22;76.02
82148;BME280;71718;50.480;12.110;2024-03-06T05:57:18;97926.91;;;4.24;76.54
82148;BME280;71718;50.480;12.110;2024-03-06T06:00:03;97929.28;;;4.09;76.96
82148;BME280;71718;50.480;12.110;2024-03-06T06:02:29;97930.88;;;3.94;77.09
82148;BME280;71718;50.480;12.110;2024-03-06T06:04:55;97932.00;;;3.99;76.73
82148;BME280;71718;50.480;12.110;2024-03-06T06:07:42;97929.75;;;3.96;76.94
82148;BME280;71718;50.480;12.110;2024-03-06T06:10:08;97933.94;;;4.05;76.59
82148;BME280;71718;50.480;12.110;2024-03-06T06:12:34;97933.34;;;4.11;76.81
82148;BME280;71718;50.480;12.110;2024-03-06T06:15:01;97940.19;;;3.95;76.44
82148;BME280;71718;50.480;12.110;2024-03-06T06:17:27;97944.19;;;3.89;77.02
82148;BME280;71718;50.480;12.110;2024-03-06T06:19:54;97952.97;;;3.78;77.43
82148;BME280;71718;50.480;12.110;2024-03-06T06:22:20;97953.13;;;3.77;76.85
82148;BME280;71718;50.480;12.110;2024-03-06T06:24:46;97955.69;;;3.69;77.00
82148;BME280;71718;50.480;12.110;2024-03-06T06:27:13;97966.09;;;3.67;77.68
82148;BME280;71718;50.480;12.110;2024-03-06T06:29:39;97960.91;;;3.59;76.84
82148;BME280;71718;50.480;12.110;2024-03-06T06:32:06;97964.75;;;3.63;76.85
82148;BME280;71718;50.480;12.110;2024-03-06T06:34:32;97969.91;;;3.63;76.65
82148;BME280;71718;50.480;12.110;2024-03-06T06:36:58;97970.38;;;3.59;76.57
82148;BME280;71718;50.480;12.110;2024-03-06T06:39:25;97974.84;;;3.57;76.62
82148;BME280;71718;50.480;12.110;2024-03-06T06:41:51;97972.13;;;3.58;76.67
82148;BME280;71718;50.480;12.110;2024-03-06T06:44:17;97977.41;;;3.57;77.17
82148;BME280;71718;50.480;12.110;2024-03-06T06:46:44;97977.28;;;3.66;76.86
82148;BME280;71718;50.480;12.110;2024-03-06T06:49:10;97980.03;;;3.65;76.87
82148;BME280;71718;50.480;12.110;2024-03-06T06:51:37;97998.16;;;3.37;76.61
82148;BME280;71718;50.480;12.110;2024-03-06T06:54:03;97993.53;;;3.15;77.65
82148;BME280;71718;50.480;12.110;2024-03-06T06:56:31;97995.78;;;2.92;78.75
82148;BME280;71718;50.480;12.110;2024-03-06T06:58:57;97997.63;;;2.82;79.19
82148;BME280;71718;50.480;12.110;2024-03-06T07:01:24;97999.31;;;2.74;80.30
82148;BME280;71718;50.480;12.110;2024-03-06T07:03:50;98001.34;;;2.88;80.46
82148;BME280;71718;50.480;12.110;2024-03-06T07:06:17;98017.16;;;2.83;79.58
82148;BME280;71718;50.480;12.110;2024-03-06T07:08:43;98006.03;;;2.75;79.88
82148;BME280;71718;50.480;12.110;2024-03-06T07:11:10;98013.75;;;2.75;80.34
82148;BME280;71718;50.480;12.110;2024-03-06T07:13:37;98008.53;;;2.84;80.60
82148;BME280;71718;50.480;12.110;2024-03-06T07:16:06;98002.84;;;2.99;80.30
82148;BME280;71718;50.480;12.110;2024-03-06T07:18:33;98022.25;;;3.19;79.88
82148;BME280;71718;50.480;12.110;2024-03-06T07:20:59;98022.25;;;3.19;79.11
82148;BME280;71718;50.480;12.110;2024-03-06T07:23:25;98019.75;;;3.27;79.06
82148;BME280;71718;50.480;12.110;2024-03-06T07:25:52;98025.59;;;3.37;78.76
82148;BME280;71718;50.480;12.110;2024-03-06T07:28:18;98027.84;;;3.40;79.30
82148;BME280;71718;50.480;12.110;2024-03-06T07:30:45;98015.22;;;3.47;78.57
82148;BME280;71718;50.480;12.110;2024-03-06T07:33:11;98031.94;;;3.51;79.14
82148;BME280;71718;50.480;12.110;2024-03-06T07:35:38;98040.19;;;3.36;78.67
82148;BME280;71718;50.480;12.110;2024-03-06T07:38:04;98030.06;;;3.35;79.22
82148;BME280;71718;50.480;12.110;2024-03-06T07:40:31;98032.44;;;3.28;79.63
82148;BME280;71718;50.480;12.110;2024-03-06T07:42:57;98044.13;;;3.23;80.44
82148;BME280;71718;50.480;12.110;2024-03-06T07:45:24;98042.94;;;3.17;80.63
82148;BME280;71718;50.480;12.110;2024-03-06T07:47:50;98051.06;;;3.30;80.24
82148;BME280;71718;50.480;12.110;2024-03-06T07:50:17;98051.94;;;3.39;80.39
82148;BME280;71718;50.480;12.110;2024-03-06T07:52:43;98054.59;;;3.55;79.73
82148;BME280;71718;50.480;12.110;2024-03-06T07:55:09;98055.75;;;3.61;79.18
82148;BME280;71718;50.480;12.110;2024-03-06T07:57:36;98052.47;;;3.68;77.55
82148;BME280;71718;50.480;12.110;2024-03-06T08:00:03;98060.38;;;3.75;77.81
82148;BME280;71718;50.480;12.110;2024-03-06T08:02:29;98067.19;;;3.66;78.03
82148;BME280;71718;50.480;12.110;2024-03-06T08:04:56;98072.78;;;3.62;77.83
82148;BME280;71718;50.480;12.110;2024-03-06T08:07:22;98075.00;;;3.57;78.67
82148;BME280;71718;50.480;12.110;2024-03-06T08:09:48;98078.28;;;3.67;78.92
82148;BME280;71718;50.480;12.110;2024-03-06T08:12:15;98076.38;;;3.69;78.12
82148;BME280;71718;50.480;12.110;2024-03-06T08:14:41;98075.34;;;3.62;78.70
82148;BME280;71718;50.480;12.110;2024-03-06T08:17:08;98075.88;;;3.65;78.93
82148;BME280;71718;50.480;12.110;2024-03-06T08:19:34;98076.50;;;3.85;78.70
82148;BME280;71718;50.480;12.110;2024-03-06T08:22:00;98080.28;;;4.07;77.95
82148;BME280;71718;50.480;12.110;2024-03-06T08:24:31;98072.19;;;4.28;76.99
82148;BME280;71718;50.480;12.110;2024-03-06T08:26:58;98073.97;;;4.43;76.25
82148;BME280;71718;50.480;12.110;2024-03-06T08:29:24;98079.81;;;4.53;75.73
82148;BME280;71718;50.480;12.110;2024-03-06T08:31:50;98083.84;;;4.64;75.19
82148;BME280;71718;50.480;12.110;2024-03-06T08:34:17;98090.78;;;4.80;74.81
82148;BME280;71718;50.480;12.110;2024-03-06T08:36:44;98091.16;;;4.93;74.24
82148;BME280;71718;50.480;12.110;2024-03-06T08:39:10;98090.38;;;5.09;73.71
82148;BME280;71718;50.480;12.110;2024-03-06T08:41:36;98094.41;;;5.19;72.72
82148;BME280;71718;50.480;12.110;2024-03-06T08:44:03;98091.66;;;5.29;71.76
82148;BME280;71718;50.480;12.110;2024-03-06T08:46:29;98094.38;;;5.43;71.35
82148;BME280;71718;50.480;12.110;2024-03-06T08:48:56;98090.66;;;5.54;71.16
82148;BME280;71718;50.480;12.110;2024-03-06T08:51:24;98101.75;;;5.63;71.25
82148;BME280;71718;50.480;12.110;2024-03-06T08:53:50;98105.78;;;5.73;70.65
82148;BME280;71718;50.480;12.110;2024-03-06T08:56:17;98112.06;;;5.71;70.07
82148;BME280;71718;50.480;12.110;2024-03-06T08:58:46;98113.56;;;5.57;71.07
82148;BME280;71718;50.480;12.110;2024-03-06T09:01:12;98107.72;;;5.63;71.13
82148;BME280;71718;50.480;12.110;2024-03-06T09:03:38;98114.81;;;5.53;70.75
82148;BME280;71718;50.480;12.110;2024-03-06T09:06:05;98115.31;;;5.57;70.99
82148;BME280;71718;50.480;12.110;2024-03-06T09:08:31;98121.59;;;5.62;71.20
82148;BME280;71718;50.480;12.110;2024-03-06T09:10:58;98121.59;;;5.62;71.00
82148;BME280;71718;50.480;12.110;2024-03-06T09:13:25;98112.38;;;5.68;71.04
82148;BME280;71718;50.480;12.110;2024-03-06T09:15:52;98117.22;;;5.71;70.94
82148;BME280;71718;50.480;12.110;2024-03-06T09:18:19;98126.56;;;5.88;71.32
82148;BME280;71718;50.480;12.110;2024-03-06T09:20:46;98126.22;;;5.91;70.94
82148;BME280;71718;50.480;12.110;2024-03-06T09:23:12;98128.63;;;5.93;70.90
82148;BME280;71718;50.480;12.110;2024-03-06T09:25:38;98138.63;;;6.04;70.02
82148;BME280;71718;50.480;12.110;2024-03-06T09:28:05;98137.50;;;5.98;70.14
82148;BME280;71718;50.480;12.110;2024-03-06T09:30:31;98136.19;;;5.94;70.30
82148;BME280;71718;50.480;12.110;2024-03-06T09:32:58;98141.34;;;6.02;70.79
82148;BME280;71718;50.480;12.110;2024-03-06T09:35:24;98142.50;;;5.91;69.62
82148;BME280;71718;50.480;12.110;2024-03-06T09:37:51;98138.00;;;5.77;70.04
82148;BME280;71718;50.480;12.110;2024-03-06T09:40:20;98138.81;;;5.45;70.72
82148;BME280;71718;50.480;12.110;2024-03-06T09:42:47;98145.09;;;5.51;72.64
82148;BME280;71718;50.480;12.110;2024-03-06T09:45:14;98133.16;;;5.58;71.00
82148;BME280;71718;50.480;12.110;2024-03-06T09:47:42;98147.50;;;5.61;70.40
82148;BME280;71718;50.480;12.110;2024-03-06T09:50:10;98146.69;;;5.84;71.21
82148;BME280;71718;50.480;12.110;2024-03-06T09:52:36;98152.31;;;5.96;68.90
82148;BME280;71718;50.480;12.110;2024-03-06T09:55:03;98148.59;;;5.90;68.64
82148;BME280;71718;50.480;12.110;2024-03-06T09:57:30;98146.81;;;6.07;69.38
82148;BME280;71718;50.480;12.110;2024-03-06T09:59:56;98144.72;;;6.19;69.83
82148;BME280;71718;50.480;12.110;2024-03-06T10:02:36;98152.09;;;6.30;68.33
82148;BME280;71718;50.480;12.110;2024-03-06T10:05:04;98144.69;;;6.27;68.55
82148;BME280;71718;50.480;12.110;2024-03-06T10:07:31;98145.28;;;6.45;67.56
82148;BME280;71718;50.480;12.110;2024-03-06T10:09:57;98143.63;;;6.52;66.12
82148;BME280;71718;50.480;12.110;2024-03-06T10:12:24;98147.03;;;6.53;67.54
82148;BME280;71718;50.480;12.110;2024-03-06T10:14:53;98142.91;;;6.74;65.54
82148;BME280;71718;50.480;12.110;2024-03-06T10:17:21;98141.84;;;6.92;65.35
82148;BME280;71718;50.480;12.110;2024-03-06T10:19:47;98147.00;;;7.14;64.43
82148;BME280;71718;50.480;12.110;2024-03-06T10:22:14;98147.13;;;7.21;64.43
82148;BME280;71718;50.480;12.110;2024-03-06T10:24:41;98148.34;;;7.33;62.63
82148;BME280;71718;50.480;12.110;2024-03-06T10:27:07;98152.28;;;7.44;63.18
82148;BME280;71718;50.480;12.110;2024-03-06T10:29:33;98152.00;;;7.39;62.23
82148;BME280;71718;50.480;12.110;2024-03-06T10:32:00;98152.16;;;7.60;62.57
82148;BME280;71718;50.480;12.110;2024-03-06T10:34:28;98157.31;;;7.83;62.37
82148;BME280;71718;50.480;12.110;2024-03-06T10:36:58;98156.06;;;7.79;62.50
82148;BME280;71718;50.480;12.110;2024-03-06T10:39:25;98161.41;;;7.77;62.32
82148;BME280;71718;50.480;12.110;2024-03-06T10:41:53;98156.72;;;7.95;62.73
82148;BME280;71718;50.480;12.110;2024-03-06T10:44:22;98162.53;;;7.97;61.84
82148;BME280;71718;50.480;12.110;2024-03-06T10:46:55;98166.03;;;8.05;60.86
82148;BME280;71718;50.480;12.110;2024-03-06T10:49:22;98164.97;;;8.14;62.41
82148;BME280;71718;50.480;12.110;2024-03-06T10:51:50;98161.84;;;8.03;61.17
82148;BME280;71718;50.480;12.110;2024-03-06T10:54:19;98160.88;;;8.19;62.35
82148;BME280;71718;50.480;12.110;2024-03-06T10:56:45;98157.75;;;8.24;61.41
82148;BME280;71718;50.480;12.110;2024-03-06T10:59:15;98161.03;;;8.32;60.19
82148;BME280;71718;50.480;12.110;2024-03-06T11:01:44;98156.78;;;8.10;60.24
82148;BME280;71718;50.480;12.110;2024-03-06T11:04:11;98155.97;;;7.87;61.04
82148;BME280;71718;50.480;12.110;2024-03-06T11:06:38;98154.56;;;7.84;61.31
82148;BME280;71718;50.480;12.110;2024-03-06T11:09:05;98159.91;;;7.23;62.99
82148;BME280;71718;50.480;12.110;2024-03-06T11:11:31;98157.19;;;7.16;63.40
82148;BME280;71718;50.480;12.110;2024-03-06T11:14:04;98152.47;;;7.42;63.79
82148;BME280;71718;50.480;12.110;2024-03-06T11:16:31;98156.81;;;7.19;63.90
82148;BME280;71718;50.480;12.110;2024-03-06T11:19:05;98157.34;;;6.92;64.18
82148;BME280;71718;50.480;12.110;2024-03-06T11:21:32;98152.03;;;6.85;64.71
82148;BME280;71718;50.480;12.110;2024-03-06T11:24:14;98156.31;;;7.01;64.41
82148;BME280;71718;50.480;12.110;2024-03-06T11:27:02;98156.09;;;7.33;63.00
82148;BME280;71718;50.480;12.110;2024-03-06T11:29:29;98149.22;;;7.48;61.34
82148;BME280;71718;50.480;12.110;2024-03-06T11:32:16;98155.81;;;7.51;61.37
82148;BME280;71718;50.480;12.110;2024-03-06T11:34:43;98143.19;;;7.71;62.28
82148;BME280;71718;50.480;12.110;2024-03-06T11:37:09;98146.88;;;7.91;59.43
82148;BME280;71718;50.480;12.110;2024-03-06T11:39:38;98143.59;;;7.59;58.78
82148;BME280;71718;50.480;12.110;2024-03-06T11:42:05;98140.06;;;7.60;60.77
82148;BME280;71718;50.480;12.110;2024-03-06T11:44:32;98149.59;;;7.97;58.60
82148;BME280;71718;50.480;12.110;2024-03-06T11:47:03;98141.16;;;8.03;57.63
82148;BME280;71718;50.480;12.110;2024-03-06T11:49:31;98143.13;;;8.16;58.49
82148;BME280;71718;50.480;12.110;2024-03-06T11:54:30;98143.22;;;7.85;59.62
82148;BME280;71718;50.480;12.110;2024-03-06T11:56:58;98142.59;;;7.83;58.53
82148;BME280;71718;50.480;12.110;2024-03-06T11:59:26;98141.09;;;7.74;58.19
82148;BME280;71718;50.480;12.110;2024-03-06T12:01:55;98143.47;;;7.76;58.68
82148;BME280;71718;50.480;12.110;2024-03-06T12:04:22;98146.25;;;7.74;56.98
82148;BME280;71718;50.480;12.110;2024-03-06T12:06:48;98148.41;;;7.48;57.18
82148;BME280;71718;50.480;12.110;2024-03-06T12:09:15;98142.88;;;7.28;60.76
82148;BME280;71718;50.480;12.110;2024-03-06T12:11:41;98147.19;;;7.36;58.65
82148;BME280;71718;50.480;12.110;2024-03-06T12:14:13;98144.44;;;7.37;58.11
82148;BME280;71718;50.480;12.110;2024-03-06T12:16:39;98143.44;;;7.61;58.26
82148;BME280;71718;50.480;12.110;2024-03-06T12:19:06;98141.09;;;7.89;58.19
82148;BME280;71718;50.480;12.110;2024-03-06T12:21:33;98138.84;;;8.23;57.26
82148;BME280;71718;50.480;12.110;2024-03-06T12:24:03;98132.31;;;8.27;54.23
82148;BME280;71718;50.480;12.110;2024-03-06T12:26:30;98141.88;;;8.41;56.33
82148;BME280;71718;50.480;12.110;2024-03-06T12:29:10;98144.91;;;8.16;55.83
82148;BME280;71718;50.480;12.110;2024-03-06T12:31:41;98150.38;;;7.83;58.33
82148;BME280;71718;50.480;12.110;2024-03-06T12:34:13;98143.75;;;7.81;56.56
82148;BME280;71718;50.480;12.110;2024-03-06T12:36:42;98146.69;;;7.78;58.02
82148;BME280;71718;50.480;12.110;2024-03-06T12:39:08;98151.31;;;7.68;57.50
82148;BME280;71718;50.480;12.110;2024-03-06T12:41:34;98146.34;;;7.81;56.77
82148;BME280;71718;50.480;12.110;2024-03-06T12:44:01;98145.47;;;7.88;55.00
82148;BME280;71718;50.480;12.110;2024-03-06T12:46:27;98138.97;;;7.92;53.93
82148;BME280;71718;50.480;12.110;2024-03-06T12:48:54;98144.25;;;7.99;55.57
82148;BME280;71718;50.480;12.110;2024-03-06T12:51:20;98150.69;;;7.80;56.08
82148;BME280;71718;50.480;12.110;2024-03-06T12:53:46;98144.38;;;7.83;55.44
82148;BME280;71718;50.480;12.110;2024-03-06T12:56:13;98148.84;;;7.74;56.56
82148;BME280;71718;50.480;12.110;2024-03-06T12:58:39;98139.38;;;7.44;55.06
82148;BME280;71718;50.480;12.110;2024-03-06T13:01:06;98146.63;;;7.48;56.81
82148;BME280;71718;50.480;12.110;2024-03-06T13:03:32;98144.81;;;7.72;56.09
82148;BME280;71718;50.480;12.110;2024-03-06T13:05:59;98146.56;;;7.56;53.53
82148;BME280;71718;50.480;12.110;2024-03-06T13:08:26;98134.53;;;7.64;53.22